• Join FlightAware (Why Join?)
  • Login
  • US Flag 
05:03AM EDT


 

Airport Tracker/Info


-or-


 

Live Flight TrackerFlight Track Log ✈ N45BB ✈ 12-Oct-2013 ✈ KCEU - M33

Flight Track Log - Related Links

Times and Time Zones

All times are in EDT time to prevent confusion due to time zone crossing. See the N45BB flight status page for this flight to view local times or setup timezone preferences in your user account.

Time Position Orientation Groundspeed Altitude Reporting Facility
EDT Latitude Longitude Course Direction KTS MPH feet Rate Location/Type
08:24PM 34.6581 -82.9833 301° West 196 226 2,700  Level Atlanta Center
08:25PM 34.6769 -83.0208 301° West 158 182 3,600 900 Climbing Atlanta Center
08:26PM 34.6939 -83.0561 300° West 133 153 4,500 840 Climbing Atlanta Center
08:27PM 34.7150 -83.0886 308° West 128 147 5,300 720 Climbing Atlanta Center
08:28PM 34.7342 -83.1264 302° West 123 142 6,000 780 Climbing Atlanta Center
08:29PM 34.7575 -83.1589 311° West 128 147 6,900 780 Climbing Atlanta Center
08:30PM 34.7744 -83.1992 297° West 128 147 7,600 780 Climbing Atlanta Center
08:31PM 34.7933 -83.2369 301° West 134 154 8,500 840 Climbing Atlanta Center
08:32PM 34.8125 -83.2747 302° West 134 154 9,300 660 Climbing Atlanta Center
08:33PM 34.8314 -83.3075 305° West 134 154 9,900 600 Climbing Atlanta Center
08:34PM 34.8525 -83.3428 306° West 129 148 10,600 660 Climbing Atlanta Center
08:35PM 34.8736 -83.3728 311° West 118 136 11,300 600 Climbing Atlanta Center
08:36PM 34.8944 -83.4083 306° West 126 145 11,800 300 Climbing Atlanta Center
08:37PM 34.9239 -83.4433 316° Northwest 136 157 11,900  Climbing Atlanta Center
08:38PM 34.9575 -83.4811 317° Northwest 141 162 11,900  Level Atlanta Center
08:39PM 34.9911 -83.5189 317° Northwest 153 176 11,900  Level Atlanta Center
08:40PM 35.0247 -83.5719 308° West 165 190 11,900  Level Atlanta Center
08:41PM 35.0519 -83.6150 308° West 171 197 11,900  Level Atlanta Center
08:42PM 35.0833 -83.6606 310° West 176 203 11,900  Level Atlanta Center
08:43PM 35.1064 -83.7139 298° West 176 203 11,900  Level Atlanta Center
08:44PM 35.1317 -83.7619 303° West 176 203 11,900  Level Atlanta Center
08:45PM 35.1569 -83.8128 301° West 171 197 11,900  Level Atlanta Center
08:46PM 35.1797 -83.8608 300° West 171 197 11,900  Level Atlanta Center
08:47PM 35.2028 -83.9142 298° West 171 197 11,900  Level Atlanta Center
08:48PM 35.2281 -83.9625 303° West 171 197 11,900  Level Atlanta Center
08:49PM 35.2508 -84.0108 300° West 171 197 11,900  Level Atlanta Center
08:50PM 35.2739 -84.0617 299° West 171 197 11,900  Level Atlanta Center
08:51PM 35.2989 -84.1100 302° West 171 197 11,900  Level Atlanta Center
08:52PM 35.3219 -84.1608 299° West 171 197 11,900  Level Atlanta Center
08:53PM 35.3489 -84.2119 303° West 171 197 11,900  Level Atlanta Center
08:54PM 35.3739 -84.2628 301° West 171 197 11,900  Level Atlanta Center
08:55PM 35.3989 -84.3139 301° West 171 197 11,900  Level Atlanta Center
08:56PM 35.4236 -84.3625 302° West 176 203 11,900  Level Atlanta Center
08:57PM 35.4486 -84.4136 301° West 176 203 11,900  Level Atlanta Center
08:58PM 35.4733 -84.4647 301° West 176 203 12,000  Climbing Atlanta Center
08:59PM 35.4983 -84.5158 301° West 176 203 11,900  Descending Atlanta Center
09:00PM 35.5211 -84.5644 300° West 176 203 12,000  Climbing Atlanta Center
09:01PM 35.5481 -84.6181 302° West 176 203 12,000  Level Atlanta Center
09:02PM 35.5706 -84.6669 300° West 176 203 12,000  Level Atlanta Center
09:03PM 35.5953 -84.7181 301° West 176 203 12,000  Level Atlanta Center
09:04PM 35.6181 -84.7719 297° West 176 203 12,000  Level Atlanta Center
09:06PM 35.6728 -84.8831 301° West 178 205 12,000  Level Memphis Center
09:07PM 35.6956 -84.9278 302° West 178 205 12,000  Level Memphis Center
09:08PM 35.7189 -84.9797 299° West 178 205 12,000  Level Memphis Center
09:09PM 35.7439 -85.0319 301° West 178 205 12,000  Level Memphis Center
09:10PM 35.7669 -85.0842 299° West 178 205 12,000  Level Memphis Center
09:11PM 35.7922 -85.1364 301° West 178 205 12,000  Level Memphis Center
09:12PM 35.8153 -85.1886 299° West 178 205 12,000  Level Memphis Center
09:13PM 35.8403 -85.2383 302° West 178 205 12,000  Level Memphis Center
09:14PM 35.8653 -85.2906 301° West 178 205 12,000  Level Memphis Center
09:15PM 35.8906 -85.3453 300° West 178 205 12,000  Level Memphis Center
09:16PM 35.9133 -85.3978 298° West 178 205 12,000 -360 Level Memphis Center
09:17PM 35.9386 -85.4550 299° West 178 205 11,300 -600 Descending Memphis Center
09:18PM 35.9681 -85.5122 302° West 184 212 10,900 -480 Descending Memphis Center
09:19PM 35.9975 -85.5722 301° West 195 224 10,400 -540 Descending Memphis Center
09:20PM 36.0225 -85.6297 298° West 195 224 9,900 -540 Descending Memphis Center
09:21PM 36.0478 -85.6900 297° West 195 224 9,400 -600 Descending Memphis Center
09:22PM 36.0728 -85.7475 298° West 195 224 8,800 -600 Descending Memphis Center
09:23PM 36.1000 -85.8050 300° West 195 224 8,200 -780 Descending Memphis Center
09:24PM 36.1275 -85.8703 298° West 195 224 7,300 -900 Descending Memphis Center
09:25PM 36.1567 -85.9278 302° West 195 224 6,400 -780 Descending Memphis Center
09:26PM 36.1775 -85.9883 293° West 195 224 5,800 -600 Descending Memphis Center
09:27PM 36.1981 -86.0389 297° West 190 219 5,200 -840 Descending Memphis Center
09:28PM 36.2192 -86.1044 292° West 190 219 4,200 -840 Descending Memphis Center
09:29PM 36.2397 -86.1628 294° West 196 226 3,600 -600 Descending Memphis Center
09:30PM 36.2606 -86.2208 294° West 191 220 3,100 -420 Descending Memphis Center
09:31PM 36.2789 -86.2739 293° West 181 208 2,800 -240 Descending Memphis Center
09:32PM 36.2978 -86.3375 290° West 181 208 2,700 -120 Descending Memphis Center
09:36PM 36.3545 -86.3886 293° West  Level Estimated
09:43PM 36.3667 -86.4000 293° West  Level FlightAware Approximate
09:44PM 36.3768 -86.4088 293° West  Level Estimated